nws-alerts: Checking more than four warning/county codes can delay the loading of your pages. You should use a cron job to get the data.

Nearby METAR Weather Reports

 

KETB - West Bend, WI
Distance from station: E 4mi, 6km
Updated: 05/07/2021 4:55am
Light rain, Overcast
Light rain, Overcast
 Wind from NW
Wind: NW 9 mph , 15 km/h
Temperature: 45°F , 7°C
Wind Chill: 40°F , 4°C
Dew Point: 36°F , 2°C
Humidity: 71%
Barometer: 29.95 inHg , 1014.2 hPa
Summary: Light rain
Clouds: Overcast
Visibility: 10 miles , 16 km
Cloud details: Partly cloudy 3700 ft
Overcast 5000 ft
2021/05/07 09:55 KETB 070955Z AUTO 31008KT 10SM -RA SCT037 OVC050 07/02 A2995 RMK AO2
KFLD - Fond Du Lac, WI
Distance from station: W 34mi, 54km
Updated: 05/07/2021 5:14am
Overcast
Overcast
 Wind from NW
Wind: NW 10 mph , 17 km/h
Temperature: 45°F , 7°C
Wind Chill: 40°F , 4°C
Dew Point: 36°F , 2°C
Humidity: 71%
Barometer: 29.95 inHg , 1014.2 hPa
Clouds: Overcast
Visibility: 10 miles , 16 km
Cloud details: Few Clouds 2300 ft
Mostly cloudy 2800 ft
Overcast 9000 ft
2021/05/07 10:14 KFLD 071014Z AUTO 31009KT 10SM FEW023 BKN028 OVC090 07/02 A2995 RMK AO2 T00720017
 
KSBM - Sheboygan, WI
Distance from station: NE 36mi, 57km
Updated: 05/07/2021 4:53am
Light rain, Overcast
Light rain, Overcast
 Wind from W
Wind: W 6 mph , 9 km/h
Temperature: 45°F , 7°C
Wind Chill: 42°F , 6°C
Dew Point: 36°F , 2°C
Humidity: 71%
Barometer: 29.92 inHg , 1013.2 hPa
Summary: Light rain
Clouds: Overcast
Visibility: 10 miles , 16 km
Cloud details: Partly cloudy 6000 ft
Overcast 7500 ft
2021/05/07 09:53 KSBM 070953Z AUTO 28005KT 10SM -RA SCT060 OVC075 07/02 A2992 RMK AO2 RAB52 SLP136 P0000 T00720022
KMKE - Milwaukee, WI
Distance from station: S 44mi, 70km
Updated: 05/07/2021 4:52am
Overcast
Overcast
 Wind from W
Wind: W 6 mph , 9 km/h
Temperature: 46°F , 8°C
Wind Chill: 43°F , 6°C
Dew Point: 36°F , 2°C
Humidity: 66%
Barometer: 29.94 inHg , 1013.9 hPa
Clouds: Overcast
Visibility: 10 miles , 16 km
Cloud details: Mostly cloudy 9000 ft
Overcast 11000 ft
2021/05/07 09:52 KMKE 070952Z 26005KT 10SM BKN090 OVC110 08/02 A2994 RMK AO2 SLP143 T00780022
 
KOSH - Oshkosh, WI
Distance from station: WNW 52mi, 83km
Updated: 05/07/2021 4:53am
Mostly cloudy
Mostly cloudy
 Wind from NW
Wind: NW 9 mph , 15 km/h
Temperature: 43°F , 6°C
Wind Chill: 38°F , 3°C
Dew Point: 37°F , 3°C
Humidity: 81%
Barometer: 29.94 inHg , 1013.9 hPa
Clouds: Mostly cloudy
Visibility: 10 miles , 16 km
Cloud details: Few Clouds 2300 ft
Partly cloudy 3100 ft
Mostly cloudy 3800 ft
2021/05/07 09:53 KOSH 070953Z AUTO 31008KT 10SM FEW023 SCT031 BKN038 06/03 A2994 RMK AO2 SLP138 T00610028
KENW - Kenosha, WI
Distance from station: SSE 69mi, 111km
Updated: 05/07/2021 4:53am
Overcast
Overcast
 Wind from SW
Wind: SW 7 mph , 11 km/h
Temperature: 45°F , 7°C
Wind Chill: 41°F , 5°C
Dew Point: 36°F , 2°C
Humidity: 71%
Barometer: 29.94 inHg , 1013.9 hPa
Clouds: Overcast
Visibility: 10 miles , 16 km
Cloud details: Overcast 10000 ft
2021/05/07 09:53 KENW 070953Z AUTO 22006KT 10SM OVC100 07/02 A2994 RMK AO2 SLP142 T00670022
 
KMSN - Madison, WI
Distance from station: SW 69mi, 111km
Updated: 05/07/2021 4:53am
Clear
Clear
 Wind from NW
Wind: NW 6 mph , 9 km/h
Temperature: 45°F , 7°C
Wind Chill: 42°F , 6°C
Dew Point: 36°F , 2°C
Humidity: 71%
Barometer: 29.97 inHg , 1014.9 hPa
Clouds: Clear
Visibility: 10 miles , 16 km
2021/05/07 09:53 KMSN 070953Z AUTO 31005KT 10SM CLR 07/02 A2997 RMK AO2 SLP152 T00720022
KSAW - Marquette, MI
Distance from station: N 262mi, 421km
Updated: 05/07/2021 5:05am
Light snow, Overcast
Light snow, Overcast
 Wind from NNE
Wind: NNE 7 mph , 11 km/h
Temperature: 32°F , 0°C
Wind Chill: 25°F , -4°C
Dew Point: 32°F , 0°C
Humidity: 100%
Barometer: 29.93 inHg , 1013.5 hPa
Summary: Light Snow
Clouds: Overcast
Visibility: 7 miles , 11 km
Cloud details: Overcast 300 ft
2021/05/07 10:05 KSAW 071005Z AUTO 03006KT 7SM -SN OVC003 00/00 A2993 RMK AO2
 
KIMT - Iron Mountain, MI
Distance from station: NNW 201mi, 323km
Updated: 05/07/2021 5:08am
Light rain, Overcast
Light rain, Overcast
 Wind from NNW
Wind: NNW 7 mph , 11 km/h
Temperature: 37°F , 3°C
Wind Chill: 32°F , 0°C
Dew Point: 34°F , 1°C
Humidity: 87%
Barometer: 29.91 inHg , 1012.9 hPa
Summary: Light rain
Clouds: Overcast
Visibility: 10 miles , 16 km
Cloud details: Mostly cloudy 700 ft
Overcast 1100 ft
2021/05/07 10:08 KIMT 071008Z AUTO 33006KT 10SM -RA BKN007 OVC011 03/01 A2991 RMK AO2 RAB03 CIG 005V010 P0000 T00280011
KGRB - Green Bay, WI
Distance from station: NNW 87mi, 140km
Updated: 05/07/2021 4:53am
Overcast
Overcast
 Wind from WNW
Wind: WNW 3 mph , 6 km/h
Temperature: 41°F , 5°C
Dew Point: 37°F , 3°C
Humidity: 87%
Barometer: 29.93 inHg , 1013.5 hPa
Clouds: Overcast
Visibility: 10 miles , 16 km
Cloud details: Partly cloudy 3200 ft
Mostly cloudy 4000 ft
Overcast 4800 ft
2021/05/07 09:53 KGRB 070953Z AUTO 29003KT 10SM SCT032 BKN040 OVC048 05/03 A2993 RMK AO2 RAE43 SLP140 P0001 T00500028
 
KAUW - Wausau, WI
Distance from station: NW 155mi, 249km
Updated: 05/07/2021 4:54am
Mostly cloudy
Mostly cloudy
 Wind from WNW
Wind: WNW 8 mph , 13 km/h
Temperature: 37°F , 3°C
Wind Chill: 31°F , -1°C
Dew Point: 34°F , 1°C
Humidity: 87%
Barometer: 29.96 inHg , 1014.6 hPa
Clouds: Mostly cloudy
Visibility: 10 miles , 16 km
Cloud details: Mostly cloudy 2300 ft
2021/05/07 09:54 KAUW 070954Z AUTO 29007KT 10SM BKN023 03/01 A2996 RMK AO2 SLP155 T00330006
KORD - Chicago O'Hare, IL
Distance from station: S 113mi, 181km
Updated: 05/07/2021 4:51am
Mostly cloudy
Mostly cloudy
 Wind from SW
Wind: SW 8 mph , 13 km/h
Temperature: 45°F , 7°C
Wind Chill: 41°F , 5°C
Dew Point: 36°F , 2°C
Humidity: 71%
Barometer: 29.97 inHg , 1014.9 hPa
Clouds: Mostly cloudy
Visibility: 10 miles , 16 km
Cloud details: Mostly cloudy 11000 ft
2021/05/07 09:51 KORD 070951Z 22007KT 10SM BKN110 07/02 A2997 RMK AO2 SLP149 T00720017
 
KVOK - WIANG Volk Field, Camp Douglas, WI
Distance from station: WNW 120mi, 193km
Updated: 05/07/2021 4:56am
Clear
Clear
 Wind from WNW
Wind: WNW 6 mph , 9 km/h
Temperature: 36°F , 2°C
Wind Chill: 31°F , -1°C
Dew Point: 36°F , 2°C
Humidity: 100%
Barometer: 30.00 inHg , 1015.9 hPa
Clouds: Clear
Visibility: 10 miles , 16 km
2021/05/07 09:56 KVOK 070956Z 30005KT 10SM CLR 02/02 A3000 RMK AO2A SLP167
KLNR - Lone Rock, WI
Distance from station: W 114mi, 183km
Updated: 05/07/2021 4:56am
Clear
Clear
 Wind from NNW
Wind: NNW 8 mph , 13 km/h
Temperature: 45°F , 7°C
Wind Chill: 41°F , 5°C
Dew Point: 37°F , 3°C
Humidity: 76%
Barometer: 30.00 inHg , 1015.9 hPa
Clouds: Clear
Visibility: 10 miles , 16 km
2021/05/07 09:56 KLNR 070956Z AUTO 34007KT 10SM CLR 07/03 A3000 RMK AO2 SLP158 T00670033